Murdochville, Canada
Current Conditions -  °F | °C
As of 7:00 AM on Saturday 20 Dec 2014 (Local Time) from CYGP Reporting Station
Overcast Overcast  
Wind Chill: -5°   Ceiling: 1800
Heat Index: -5°   Visibility: 15mi
Dew Point: -8°   Wind: 2mph
Humidity: 80%   Direction: 360°N
Pressure: 30.32"   Gusts: NA
Location:  48.97°N, 65.52°W
Report Text: CYGP 201200Z 36002KT 15SM OVC018 M05/M08 A3032 RMK SC8 SLP269
Loading
Personal Weather Stations






























Interactive Weather Map New forecast layout! Learn more

10-Day Weather Forecast

Advertisements
Track Severe Weather on mobile